Season 21
 
 
 

TWL – Player Statistics
 


Seasons: 1 - 2 - 3 - 4 - 5 - 6 - 7 - 8 - 9 - 10 - 11 - 12 - 13 - 14 - 15 - 16 - 17 - 18 - 19 - 20 - 21

Leagues: All Leagues - TWLD - TWLJ - TWLB

Ships: All ships - Warbird - Javelin - Spider - Terrier - Lancaster - Shark

Player Squad G R W L AVK HW AVD AVP RT LO SUB TP
cripple dicE 11 11 1221 638 111 133 58 17733 321054 1 0 5:40:51
diakka Sage 11 11 1012 616 92 109 56 15809 198667 3 0 5:28:55
Teemo Thunder 11 11 1073 562 99 143 53 15460 241922 0 0 5:18:01
Tsumetai Penetrate 10 10 1088 621 109 133 62 15686 236065 4 0 5:06:45
megaman89 dicE 12 12 957 542 99 129 57 17449 199004 0 0 4:59:57
Trasher Penetrate 9 9 951 421 106 115 47 15872 223615 0 0 4:36:19
Ease Thunder 9 9 903 577 100 143 64 15837 179116 3 0 4:34:48
Stayon dicE 9 9 814 457 90 122 51 15006 135758 1 1 4:34:20
Spikey Sage 10 10 814 708 90 108 80 21878 87013 0 0 4:32:52
saetep Thunder 9 9 792 458 88 117 51 13322 129752 1 0 4:27:50
squallFF8 Sage 8 8 708 424 89 122 53 14514 125863 0 0 4:08:17
Solacer Anti-Scrub 8 8 637 451 80 112 56 10887 77916 1 0 4:00:41
Leitz Pandora 8 8 728 504 91 119 63 12859 113844 0 0 3:51:48
NL>Trigger Sage 9 9 663 401 74 104 45 13984 114087 1 1 3:50:14
Murder Paladen 8 8 517 452 57 97 56 8409 47322 0 0 3:42:47
glavitik Sage 7 7 725 387 104 122 55 17487 182258 0 0 3:38:42
Lionheart Pandora 7 7 559 381 80 94 60 11598 71778 0 0 3:35:25
Producer Paladen 8 8 585 502 73 106 63 8703 53001 0 0 3:32:20
Frank The Tank! Paladen 8 8 482 412 56 87 55 6805 28304 0 0 3:30:40
sarger Pandora 8 8 633 394 79 110 49 12790 109084 0 0 3:25:28
omega red Anti-Scrub 7 7 479 365 68 84 52 7396 35107 0 0 3:22:35
idk&idc Anti-Scrub 7 7 536 397 77 118 57 9189 63333 0 0 3:21:55
Qwas hit 7 7 466 401 67 84 57 8012 24946 0 1 3:21:43
fit of rage Penetrate 7 7 499 301 71 86 43 12137 79473 1 1 3:09:40
paska dicE 7 7 537 288 77 118 41 12905 106631 2 1 3:07:54
JAMAL Spastic 6 6 603 349 101 132 58 12893 121280 1 0 3:04:43
struck Thunder 7 7 551 385 79 110 55 11745 76065 1 1 3:01:25
zeebu Pandora 8 8 511 355 64 114 44 9504 78254 1 2 3:00:24
hellkite Sage 6 6 533 322 89 109 54 14271 84040 1 0 2:59:12
skatarius hit 8 8 416 342 57 77 65 7976 27287 0 0 2:56:58
Tomas Hakke Paladen 6 6 441 343 74 108 57 9206 43128 0 0 2:51:49
raidar hit 6 6 452 345 75 95 58 7984 37273 0 0 2:49:39
temporary Penetrate 6 6 493 329 82 106 55 11975 74703 2 2 2:44:42
zhou Penetrate 6 6 506 326 91 118 71 13460 83936 0 1 2:38:55
TheWadoRooster Anti-Scrub 6 6 374 274 62 90 46 9059 41945 0 0 2:37:51
CONFLUENCE Thunder 6 6 474 307 79 113 51 14358 78906 1 0 2:36:47
RUCCI Spastic 5 5 445 320 89 111 64 10334 53671 0 0 2:35:48
Dsin Pandora 6 6 365 238 61 103 40 11163 54562 1 2 2:26:30
Necromotic dicE 5 5 424 310 85 97 62 14712 66154 0 1 2:22:54
slum hit 5 5 294 279 59 71 56 5623 11694 0 0 2:21:35
Fludd Thunder 5 5 449 256 90 118 51 15485 96891 1 0 2:15:04
turmio Penetrate 6 6 312 243 52 80 41 8873 30178 2 2 2:13:54
Teh Super Anti-Scrub 7 7 320 196 51 93 56 7611 49053 0 0 2:13:24
jerome Disoblige 6 6 288 265 48 96 44 4115 14032 0 2 2:10:36
trouble Pandora 5 5 402 241 80 126 48 11700 68910 1 1 2:09:47
kesser dicE 5 5 361 221 72 97 44 13035 66966 0 1 2:08:08
usoi Spastic 5 5 305 214 61 84 43 8486 31047 0 1 2:03:38
hulk Thunder 4 4 314 210 80 90 60 11908 32975 0 0 2:00:49
Sulla Anti-Scrub 4 4 304 217 76 91 54 8171 28364 0 0 1:58:14
BongHits Anti-Scrub 4 4 270 218 68 96 55 10257 24874 0 0 1:56:38
superstar-PROkiller Sage 4 4 337 219 84 104 55 15718 63454 0 0 1:49:44
Mean Gene Sage 4 4 272 195 68 76 49 14328 33144 0 0 1:48:14
Criminal Pandora 4 4 314 214 79 95 54 13207 43923 3 1 1:45:29
Mikes dicE 4 4 254 187 64 99 47 9872 28888 0 1 1:43:58
Baffling Pandora 3 3 316 191 105 122 64 12271 47881 0 0 1:41:08
Zazu Disoblige 4 4 234 192 59 77 48 5550 15319 0 0 1:39:59
Bender Rodriguez hit 4 4 282 178 71 85 45 10825 42057 0 0 1:36:15
M_M God Sage 3 3 248 195 83 88 65 12359 24193 0 0 1:35:31
Nowyoudie Disoblige 5 5 277 199 55 86 40 5334 20683 0 1 1:32:36
sCHOPe NORRIS Spastic 3 3 225 161 75 90 54 11088 28500 9 0 1:28:38
Nimesh Paladen 3 3 236 124 78 93 40 12224 32777 0 0 1:24:47
renzi Pandora 4 4 229 192 57 88 48 7114 17926 5 1 1:24:33
1.337 hit 3 3 229 113 76 88 37 12549 30632 2 0 1:21:39
Set It Off Disoblige 3 3 163 140 56 67 50 6088 7728 1 0 1:12:40
Endangered Disoblige 4 4 170 156 43 61 62 3184 4627 0 0 1:12:38
Gazo dicE 3 3 224 139 75 99 46 13838 44683 0 1 1:12:01
Melanoma Disoblige 3 3 206 161 69 75 54 6205 10618 0 0 1:11:30
Minotar Penetrate 4 4 209 133 52 92 33 6978 23387 1 1 1:11:00
UnderCuT Spastic 3 3 155 131 56 90 45 8785 11565 0 0 1:05:48
CJW Spastic 2 2 135 143 68 75 72 9438 -1012 0 0 1:05:13
Sleazy Pandora 4 4 183 95 48 74 45 10486 39604 3 1 1:03:59
Burnt Thunder 2 2 212 146 106 125 73 13740 34689 0 0 1:02:43
BrokenFist hit 2 2 151 75 76 76 38 13228 31033 0 0 1:00:12
sponger Anti-Scrub 2 2 147 131 74 87 66 9678 11499 1 0 0:59:31
Public Assassin Spastic 2 2 124 69 62 97 35 11498 25057 2 1 0:55:41
Erias hit 2 2 151 113 76 95 57 8616 15795 0 0 0:55:40
veloce Penetrate 2 2 133 72 70 69 48 12418 22533 0 0 0:55:21
Rasaq Penetrate 2 2 113 74 57 68 37 12495 15979 0 0 0:55:03
humid Spastic 2 2 146 94 73 79 47 11846 21212 0 0 0:55:01
Detroit Sage 2 2 164 108 82 86 54 15599 27699 1 0 0:53:40
delta Sage 2 2 117 73 59 60 37 13139 16798 0 0 0:51:07
Cucu Spastic 2 2 119 107 60 62 54 5317 3723 0 0 0:49:52
stung Tenure 2 2 71 104 36 40 52 1675 -481 0 0 0:48:51
Super Bozo Tenure 2 2 90 100 45 57 50 2479 1076 1 0 0:48:47
claushouse Paladen 2 2 90 98 45 57 49 2963 963 2 0 0:47:13
wbm dicE 2 2 135 85 68 72 43 12827 20074 0 0 0:46:59
Henry Saari Disoblige 2 2 96 99 48 65 50 2720 2687 0 0 0:46:31
paradise hit 2 2 89 100 45 79 50 6027 4904 1 1 0:40:07
bram Disoblige 2 2 80 92 40 60 46 3740 1676 0 1 0:39:05
shock Paladen 2 2 81 74 41 63 55 2844 3672 0 0 0:38:53
royst Tenure 2 2 111 78 56 66 51 2564 2810 0 0 0:35:55
lilwade Paladen 1 1 99 59 99 99 59 12179 13991 0 0 0:34:19
Davy Penetrate 1 1 109 60 109 109 60 17229 25588 0 0 0:34:10
poxy dicE 1 1 84 59 84 84 59 13846 10151 0 0 0:34:10
riske dicE 1 1 93 42 93 93 42 30736 23832 0 0 0:33:30
Jacklyn Spastic 1 1 71 76 71 71 76 10968 732 0 0 0:33:20
Straitjacket Disoblige 2 2 65 79 33 44 40 4066 -813 0 0 0:33:10
vys dicE 1 1 75 44 75 75 44 12618 10467 0 0 0:33:01
Raples Thunder 1 1 108 63 108 108 63 10997 16878 0 0 0:31:23
Mess dicE 1 1 101 56 101 101 56 15065 18831 0 0 0:30:50
Ri$e Again$t Spastic 1 1 51 63 51 51 63 5895 -28 0 0 0:29:41
Pardon Pandora 1 1 96 57 96 96 57 12586 17323 0 1 0:28:47
broofus Penetrate 1 1 72 30 72 72 30 13525 17539 0 0 0:28:16
MaStErFuL Sage 1 1 91 46 91 91 46 20768 27829 0 0 0:27:41
dazzal Disoblige 1 1 57 74 57 57 74 5402 -633 0 0 0:26:14
dreamwin Sage 1 1 94 44 94 94 44 20991 27095 0 0 0:25:42
crazyfuk hit 1 1 60 49 60 60 49 5416 2651 0 0 0:25:30
linair Tenure 1 1 48 46 48 48 46 3956 1104 0 0 0:24:42
Murp Tenure 1 1 44 47 44 44 47 3447 267 0 0 0:24:09
Spartan Anti-Scrub 1 1 69 60 69 69 60 3959 2335 0 0 0:23:46
money hit 1 1 51 56 51 51 56 2561 476 0 0 0:23:14
Wax Disoblige 1 1 59 56 59 59 56 4682 1653 0 0 0:23:08
Children Sage 1 1 64 24 64 64 24 15515 16296 0 0 0:23:02
Zeneth Thunder 1 1 64 19 64 64 19 14948 16365 0 0 0:23:02
StarWeaver Thunder 1 1 76 31 76 76 31 16159 18188 0 0 0:22:59
the_paul Anti-Scrub 1 1 70 16 70 70 16 15975 23745 0 0 0:22:57
tim Pandora 2 2 73 28 47 73 19 11102 20175 0 0 0:22:03
sphinx dicE 1 1 74 42 74 74 42 15681 15844 0 0 0:21:49
Viiru Tenure 1 1 38 43 38 38 43 1182 281 0 0 0:21:12
Downfall Anti-Scrub 1 1 50 53 52 50 65 4322 -22 0 0 0:21:01
Burg Paladen 1 1 42 46 42 42 46 1505 334 0 0 0:20:58
Cape dicE 1 1 61 38 61 61 38 10446 7462 0 0 0:20:52
Campion Disoblige 1 1 33 49 33 33 49 772 -91 0 0 0:20:25
Cres Penetrate 2 2 25 20 13 25 10 2608 1330 0 1 0:17:54
RageRitual Paladen 2 2 27 23 25 25 12 4555 540 1 0 0:17:51
juvi Tenure 1 1 2 3 2 2 3 237 -1 1 1 0:15:28
via Paladen 1 1 63 51 63 63 51 12306 5852 0 0 0:15:11
Tarriskat Tenure 1 1 35 42 35 35 42 1530 -68 1 0 0:14:48
Void Ray hit 1 1 28 12 82 27 51 25962 1505 0 0 0:14:05
Zath Penetrate 1 1 35 28 35 35 28 5248 1542 3 1 0:13:39
Pure_Luck Spastic 1 1 32 35 32 32 35 7344 -517 0 0 0:13:39
Alextron Paladen 1 1 15 33 19 12 38 1318 -86 2 0 0:12:08
dizzy Pandora 1 1 12 18 12 12 18 3921 -274 0 1 0:12:05
pinkSTAR Tenure 1 1 12 15 13 12 63 442 2 0 0 0:11:58
Executed Penetrate 1 1 47 18 47 47 18 11596 8636 0 0 0:11:39
Heisman hit 1 1 26 22 26 26 22 1131 261 0 1 0:10:29
Supreme Authority Paladen 1 1 1 0 1 1 0 203 3 0 1 0:06:52
Garen Thunder 1 1 0 0 0 0 81 2400 0 0 1 0:06:38
POiD Disoblige 1 1 7 14 7 7 14 877 -95 0 0 0:04:09
pavement Penetrate 1 1 12 8 12 12 8 110 16 0 0 0:03:43
Caja Anti-Scrub 1 1 0 0 1 0 3 824 0 0 2 0:02:15
Mikkiz Sage 1 1 0 0 15 0 5 5003 0 0 0 0:01:41
Fais hit 1 1 3 4 3 3 4 40 0 0 0 0:01:34
Plenty O`Toole Penetrate 1 1 0 0 10 0 100 4468 0 0 0 0:00:08
AnZu hit 1 1 0 0 12 0 100 3507 0 0 0 0:00:07

 
 

Central: Pacific: Eastern:
London: New Zealand: Australia:
Helsinki: Brazil: Netherlands: